sensor_id;sensor_type;location;lat;lon;timestamp;P1;durP1;ratioP1;P2;durP2;ratioP2
14316;SDS011;7242;50.858;6.586;2022-09-09T00:04:56;1.13;;;0.60;;
14316;SDS011;7242;50.858;6.586;2022-09-09T00:08:04;1.27;;;0.60;;
14316;SDS011;7242;50.858;6.586;2022-09-09T00:11:12;1.80;;;0.60;;
14316;SDS011;7242;50.858;6.586;2022-09-09T00:15:05;1.10;;;0.60;;
14316;SDS011;7242;50.858;6.586;2022-09-09T00:21:01;0.77;;;0.40;;
14316;SDS011;7242;50.858;6.586;2022-09-09T00:24:11;1.57;;;0.60;;
14316;SDS011;7242;50.858;6.586;2022-09-09T00:30:37;1.73;;;0.50;;
14316;SDS011;7242;50.858;6.586;2022-09-09T00:37:13;0.40;;;0.30;;
14316;SDS011;7242;50.858;6.586;2022-09-09T00:40:26;1.40;;;0.50;;
14316;SDS011;7242;50.858;6.586;2022-09-09T00:43:30;1.60;;;0.47;;
14316;SDS011;7242;50.858;6.586;2022-09-09T00:50:22;0.97;;;0.40;;
14316;SDS011;7242;50.858;6.586;2022-09-09T01:04:03;0.83;;;0.70;;
14316;SDS011;7242;50.858;6.586;2022-09-09T01:07:16;1.03;;;0.50;;
14316;SDS011;7242;50.858;6.586;2022-09-09T01:10:40;3.63;;;0.70;;
14316;SDS011;7242;50.858;6.586;2022-09-09T01:13:52;2.00;;;0.70;;
14316;SDS011;7242;50.858;6.586;2022-09-09T01:20:28;2.30;;;0.77;;
14316;SDS011;7242;50.858;6.586;2022-09-09T01:24:13;1.20;;;0.60;;
14316;SDS011;7242;50.858;6.586;2022-09-09T01:27:31;1.70;;;0.70;;
14316;SDS011;7242;50.858;6.586;2022-09-09T01:30:37;2.80;;;0.70;;
14316;SDS011;7242;50.858;6.586;2022-09-09T01:33:41;2.27;;;0.70;;
14316;SDS011;7242;50.858;6.586;2022-09-09T01:36:43;3.13;;;0.80;;
14316;SDS011;7242;50.858;6.586;2022-09-09T01:39:45;3.03;;;0.90;;
14316;SDS011;7242;50.858;6.586;2022-09-09T01:42:49;2.03;;;0.80;;
14316;SDS011;7242;50.858;6.586;2022-09-09T01:45:53;2.90;;;1.00;;
14316;SDS011;7242;50.858;6.586;2022-09-09T01:48:56;4.70;;;0.90;;
14316;SDS011;7242;50.858;6.586;2022-09-09T01:51:59;2.83;;;1.00;;
14316;SDS011;7242;50.858;6.586;2022-09-09T01:55:11;3.63;;;1.00;;
14316;SDS011;7242;50.858;6.586;2022-09-09T02:01:27;3.90;;;1.03;;
14316;SDS011;7242;50.858;6.586;2022-09-09T02:04:39;3.10;;;1.10;;
14316;SDS011;7242;50.858;6.586;2022-09-09T02:07:49;4.03;;;1.10;;
14316;SDS011;7242;50.858;6.586;2022-09-09T02:11:15;3.37;;;1.10;;
14316;SDS011;7242;50.858;6.586;2022-09-09T02:14:31;3.27;;;1.20;;
14316;SDS011;7242;50.858;6.586;2022-09-09T02:17:41;1.87;;;0.97;;
14316;SDS011;7242;50.858;6.586;2022-09-09T02:20:47;2.73;;;1.00;;
14316;SDS011;7242;50.858;6.586;2022-09-09T02:23:48;3.27;;;1.00;;
14316;SDS011;7242;50.858;6.586;2022-09-09T02:26:52;3.03;;;1.00;;
14316;SDS011;7242;50.858;6.586;2022-09-09T02:29:56;2.37;;;1.00;;
14316;SDS011;7242;50.858;6.586;2022-09-09T02:33:10;3.40;;;1.10;;
14316;SDS011;7242;50.858;6.586;2022-09-09T02:36:19;3.93;;;1.30;;
14316;SDS011;7242;50.858;6.586;2022-09-09T02:39:24;3.70;;;1.20;;
14316;SDS011;7242;50.858;6.586;2022-09-09T02:42:26;3.77;;;1.20;;
14316;SDS011;7242;50.858;6.586;2022-09-09T02:46:20;4.63;;;1.20;;
14316;SDS011;7242;50.858;6.586;2022-09-09T02:49:51;2.97;;;1.03;;
14316;SDS011;7242;50.858;6.586;2022-09-09T02:55:50;3.87;;;1.10;;
14316;SDS011;7242;50.858;6.586;2022-09-09T02:58:57;3.80;;;1.20;;
14316;SDS011;7242;50.858;6.586;2022-09-09T03:01:59;3.13;;;1.33;;
14316;SDS011;7242;50.858;6.586;2022-09-09T03:05:01;4.07;;;1.43;;
14316;SDS011;7242;50.858;6.586;2022-09-09T03:08:03;4.90;;;1.23;;
14316;SDS011;7242;50.858;6.586;2022-09-09T03:11:05;5.70;;;1.40;;
14316;SDS011;7242;50.858;6.586;2022-09-09T03:14:09;3.23;;;1.37;;
14316;SDS011;7242;50.858;6.586;2022-09-09T03:17:11;4.40;;;1.40;;
14316;SDS011;7242;50.858;6.586;2022-09-09T03:20:20;4.53;;;1.30;;
14316;SDS011;7242;50.858;6.586;2022-09-09T03:23:21;3.70;;;1.07;;
14316;SDS011;7242;50.858;6.586;2022-09-09T03:26:23;5.10;;;1.57;;
14316;SDS011;7242;50.858;6.586;2022-09-09T03:29:24;3.77;;;1.40;;
14316;SDS011;7242;50.858;6.586;2022-09-09T03:32:28;4.00;;;1.37;;
14316;SDS011;7242;50.858;6.586;2022-09-09T03:35:31;4.20;;;1.30;;
14316;SDS011;7242;50.858;6.586;2022-09-09T03:38:32;5.37;;;1.27;;
14316;SDS011;7242;50.858;6.586;2022-09-09T03:41:33;5.40;;;1.40;;
14316;SDS011;7242;50.858;6.586;2022-09-09T03:44:36;4.83;;;1.30;;
14316;SDS011;7242;50.858;6.586;2022-09-09T03:47:37;4.57;;;1.50;;
14316;SDS011;7242;50.858;6.586;2022-09-09T03:50:44;5.50;;;1.43;;
14316;SDS011;7242;50.858;6.586;2022-09-09T03:53:49;4.33;;;1.60;;
14316;SDS011;7242;50.858;6.586;2022-09-09T03:56:50;5.33;;;1.70;;
14316;SDS011;7242;50.858;6.586;2022-09-09T03:59:51;4.63;;;1.53;;
14316;SDS011;7242;50.858;6.586;2022-09-09T04:02:52;3.13;;;1.20;;
14316;SDS011;7242;50.858;6.586;2022-09-09T04:05:56;6.47;;;1.47;;
14316;SDS011;7242;50.858;6.586;2022-09-09T04:09:00;4.60;;;1.30;;
14316;SDS011;7242;50.858;6.586;2022-09-09T04:12:04;3.73;;;1.30;;
14316;SDS011;7242;50.858;6.586;2022-09-09T04:15:07;4.57;;;1.17;;
14316;SDS011;7242;50.858;6.586;2022-09-09T04:18:10;4.90;;;1.50;;
14316;SDS011;7242;50.858;6.586;2022-09-09T04:21:12;3.40;;;1.43;;
14316;SDS011;7242;50.858;6.586;2022-09-09T04:24:14;5.33;;;1.50;;
14316;SDS011;7242;50.858;6.586;2022-09-09T04:27:16;6.13;;;1.40;;
14316;SDS011;7242;50.858;6.586;2022-09-09T04:30:17;5.10;;;1.37;;
14316;SDS011;7242;50.858;6.586;2022-09-09T04:33:18;4.77;;;1.47;;
14316;SDS011;7242;50.858;6.586;2022-09-09T04:36:20;3.03;;;1.40;;
14316;SDS011;7242;50.858;6.586;2022-09-09T04:39:23;4.90;;;1.20;;
14316;SDS011;7242;50.858;6.586;2022-09-09T04:42:25;6.63;;;1.30;;
14316;SDS011;7242;50.858;6.586;2022-09-09T04:45:27;4.90;;;1.40;;
14316;SDS011;7242;50.858;6.586;2022-09-09T04:48:29;5.90;;;1.50;;
14316;SDS011;7242;50.858;6.586;2022-09-09T04:51:31;3.80;;;1.47;;
14316;SDS011;7242;50.858;6.586;2022-09-09T04:54:33;3.30;;;1.03;;
14316;SDS011;7242;50.858;6.586;2022-09-09T04:57:34;4.57;;;1.30;;
14316;SDS011;7242;50.858;6.586;2022-09-09T05:00:35;2.73;;;1.10;;
14316;SDS011;7242;50.858;6.586;2022-09-09T05:03:39;3.07;;;1.23;;
14316;SDS011;7242;50.858;6.586;2022-09-09T05:06:42;4.50;;;1.43;;
14316;SDS011;7242;50.858;6.586;2022-09-09T05:09:45;5.07;;;1.20;;
14316;SDS011;7242;50.858;6.586;2022-09-09T05:12:53;6.23;;;1.70;;
14316;SDS011;7242;50.858;6.586;2022-09-09T05:15:56;3.37;;;1.40;;
14316;SDS011;7242;50.858;6.586;2022-09-09T05:18:57;7.33;;;1.70;;
14316;SDS011;7242;50.858;6.586;2022-09-09T05:22:01;6.40;;;1.50;;
14316;SDS011;7242;50.858;6.586;2022-09-09T05:25:11;4.50;;;1.47;;
14316;SDS011;7242;50.858;6.586;2022-09-09T05:28:13;8.23;;;1.50;;
14316;SDS011;7242;50.858;6.586;2022-09-09T05:31:15;5.67;;;1.30;;
14316;SDS011;7242;50.858;6.586;2022-09-09T05:34:18;3.87;;;1.20;;
14316;SDS011;7242;50.858;6.586;2022-09-09T05:37:20;4.93;;;1.30;;
14316;SDS011;7242;50.858;6.586;2022-09-09T05:40:23;4.67;;;1.23;;
14316;SDS011;7242;50.858;6.586;2022-09-09T05:43:25;4.70;;;1.40;;
14316;SDS011;7242;50.858;6.586;2022-09-09T05:46:27;4.13;;;1.10;;
14316;SDS011;7242;50.858;6.586;2022-09-09T05:49:30;3.90;;;1.23;;
14316;SDS011;7242;50.858;6.586;2022-09-09T05:52:30;3.00;;;0.90;;
14316;SDS011;7242;50.858;6.586;2022-09-09T05:55:32;3.40;;;0.90;;
14316;SDS011;7242;50.858;6.586;2022-09-09T05:58:34;4.47;;;1.07;;
14316;SDS011;7242;50.858;6.586;2022-09-09T06:01:37;5.07;;;1.20;;
14316;SDS011;7242;50.858;6.586;2022-09-09T06:04:47;6.43;;;1.40;;
14316;SDS011;7242;50.858;6.586;2022-09-09T06:07:47;6.43;;;1.20;;
14316;SDS011;7242;50.858;6.586;2022-09-09T06:10:52;2.90;;;1.20;;
14316;SDS011;7242;50.858;6.586;2022-09-09T06:13:53;4.33;;;1.10;;
14316;SDS011;7242;50.858;6.586;2022-09-09T06:16:54;3.17;;;1.03;;
14316;SDS011;7242;50.858;6.586;2022-09-09T06:19:59;4.83;;;1.20;;
14316;SDS011;7242;50.858;6.586;2022-09-09T06:23:00;5.50;;;1.43;;
14316;SDS011;7242;50.858;6.586;2022-09-09T06:26:02;5.07;;;1.20;;
14316;SDS011;7242;50.858;6.586;2022-09-09T06:29:07;4.20;;;1.20;;
14316;SDS011;7242;50.858;6.586;2022-09-09T06:32:09;2.90;;;1.07;;
14316;SDS011;7242;50.858;6.586;2022-09-09T06:35:10;4.30;;;1.27;;
14316;SDS011;7242;50.858;6.586;2022-09-09T06:38:11;4.40;;;1.30;;
14316;SDS011;7242;50.858;6.586;2022-09-09T06:41:13;7.27;;;1.30;;
14316;SDS011;7242;50.858;6.586;2022-09-09T06:44:16;5.33;;;1.17;;
14316;SDS011;7242;50.858;6.586;2022-09-09T06:47:18;2.43;;;0.80;;
14316;SDS011;7242;50.858;6.586;2022-09-09T06:50:20;6.00;;;1.40;;
14316;SDS011;7242;50.858;6.586;2022-09-09T06:53:22;3.07;;;1.00;;
14316;SDS011;7242;50.858;6.586;2022-09-09T06:56:31;5.00;;;1.17;;
14316;SDS011;7242;50.858;6.586;2022-09-09T06:59:36;5.93;;;1.20;;
14316;SDS011;7242;50.858;6.586;2022-09-09T07:02:38;2.67;;;0.90;;
14316;SDS011;7242;50.858;6.586;2022-09-09T07:05:40;4.97;;;1.20;;
14316;SDS011;7242;50.858;6.586;2022-09-09T07:08:42;4.07;;;1.07;;
14316;SDS011;7242;50.858;6.586;2022-09-09T07:11:44;2.63;;;1.07;;
14316;SDS011;7242;50.858;6.586;2022-09-09T07:14:47;3.60;;;0.90;;
14316;SDS011;7242;50.858;6.586;2022-09-09T07:17:48;3.07;;;1.00;;
14316;SDS011;7242;50.858;6.586;2022-09-09T07:20:53;6.20;;;1.30;;
14316;SDS011;7242;50.858;6.586;2022-09-09T07:23:55;4.60;;;1.00;;
14316;SDS011;7242;50.858;6.586;2022-09-09T07:26:57;4.40;;;1.27;;
14316;SDS011;7242;50.858;6.586;2022-09-09T07:30:00;3.67;;;1.03;;
14316;SDS011;7242;50.858;6.586;2022-09-09T07:33:03;4.93;;;1.47;;
14316;SDS011;7242;50.858;6.586;2022-09-09T07:36:06;4.70;;;1.40;;
14316;SDS011;7242;50.858;6.586;2022-09-09T07:39:09;4.57;;;1.30;;
14316;SDS011;7242;50.858;6.586;2022-09-09T07:42:14;4.23;;;1.20;;
14316;SDS011;7242;50.858;6.586;2022-09-09T07:45:16;4.70;;;1.03;;
14316;SDS011;7242;50.858;6.586;2022-09-09T07:48:17;4.07;;;1.20;;
14316;SDS011;7242;50.858;6.586;2022-09-09T07:51:20;4.20;;;1.10;;
14316;SDS011;7242;50.858;6.586;2022-09-09T07:54:25;3.40;;;1.27;;
14316;SDS011;7242;50.858;6.586;2022-09-09T07:57:30;4.40;;;1.30;;
14316;SDS011;7242;50.858;6.586;2022-09-09T08:00:31;3.50;;;1.00;;
14316;SDS011;7242;50.858;6.586;2022-09-09T08:03:34;4.97;;;1.30;;
14316;SDS011;7242;50.858;6.586;2022-09-09T08:06:37;4.90;;;1.00;;
14316;SDS011;7242;50.858;6.586;2022-09-09T08:09:40;4.63;;;1.27;;
14316;SDS011;7242;50.858;6.586;2022-09-09T08:12:50;6.07;;;1.50;;
14316;SDS011;7242;50.858;6.586;2022-09-09T08:15:52;4.28;;;1.15;;
14316;SDS011;7242;50.858;6.586;2022-09-09T08:18:53;2.37;;;0.90;;
14316;SDS011;7242;50.858;6.586;2022-09-09T08:21:55;3.50;;;1.03;;
14316;SDS011;7242;50.858;6.586;2022-09-09T08:24:56;4.57;;;1.30;;
14316;SDS011;7242;50.858;6.586;2022-09-09T08:27:58;3.37;;;0.80;;
14316;SDS011;7242;50.858;6.586;2022-09-09T08:31:07;3.17;;;0.77;;
14316;SDS011;7242;50.858;6.586;2022-09-09T08:34:14;2.40;;;0.93;;
14316;SDS011;7242;50.858;6.586;2022-09-09T08:37:15;4.03;;;1.00;;
14316;SDS011;7242;50.858;6.586;2022-09-09T08:40:19;3.83;;;0.90;;
14316;SDS011;7242;50.858;6.586;2022-09-09T08:43:27;1.67;;;0.77;;
14316;SDS011;7242;50.858;6.586;2022-09-09T08:46:32;2.63;;;0.73;;
14316;SDS011;7242;50.858;6.586;2022-09-09T08:56:09;3.97;;;1.00;;
14316;SDS011;7242;50.858;6.586;2022-09-09T08:59:20;2.77;;;1.07;;
14316;SDS011;7242;50.858;6.586;2022-09-09T09:02:32;3.37;;;0.90;;
14316;SDS011;7242;50.858;6.586;2022-09-09T09:09:30;5.37;;;1.07;;
14316;SDS011;7242;50.858;6.586;2022-09-09T09:12:50;3.67;;;0.87;;
14316;SDS011;7242;50.858;6.586;2022-09-09T09:15:55;5.60;;;1.27;;
14316;SDS011;7242;50.858;6.586;2022-09-09T09:19:03;3.10;;;1.00;;
14316;SDS011;7242;50.858;6.586;2022-09-09T09:22:06;3.03;;;0.90;;
14316;SDS011;7242;50.858;6.586;2022-09-09T09:25:19;3.90;;;1.00;;
14316;SDS011;7242;50.858;6.586;2022-09-09T09:28:24;2.60;;;0.70;;
14316;SDS011;7242;50.858;6.586;2022-09-09T09:31:34;3.00;;;1.00;;
14316;SDS011;7242;50.858;6.586;2022-09-09T09:34:35;2.07;;;0.87;;
14316;SDS011;7242;50.858;6.586;2022-09-09T09:37:36;1.97;;;0.80;;
14316;SDS011;7242;50.858;6.586;2022-09-09T09:40:47;3.90;;;0.70;;
14316;SDS011;7242;50.858;6.586;2022-09-09T09:43:53;2.50;;;0.70;;
14316;SDS011;7242;50.858;6.586;2022-09-09T09:47:08;1.97;;;0.67;;
14316;SDS011;7242;50.858;6.586;2022-09-09T09:50:16;2.67;;;0.83;;
14316;SDS011;7242;50.858;6.586;2022-09-09T09:53:26;2.47;;;1.00;;
14316;SDS011;7242;50.858;6.586;2022-09-09T09:56:31;2.40;;;0.87;;
14316;SDS011;7242;50.858;6.586;2022-09-09T09:59:36;2.73;;;0.83;;
14316;SDS011;7242;50.858;6.586;2022-09-09T10:02:42;1.97;;;0.70;;
14316;SDS011;7242;50.858;6.586;2022-09-09T10:05:50;4.63;;;0.97;;
14316;SDS011;7242;50.858;6.586;2022-09-09T10:08:51;3.17;;;0.60;;
14316;SDS011;7242;50.858;6.586;2022-09-09T10:32:02;2.50;;;0.60;;
14316;SDS011;7242;50.858;6.586;2022-09-09T10:44:35;2.50;;;0.73;;
14316;SDS011;7242;50.858;6.586;2022-09-09T10:50:44;3.50;;;0.83;;
14316;SDS011;7242;50.858;6.586;2022-09-09T10:53:59;4.33;;;0.80;;
14316;SDS011;7242;50.858;6.586;2022-09-09T10:57:55;4.90;;;0.80;;
14316;SDS011;7242;50.858;6.586;2022-09-09T11:03:43;2.80;;;0.70;;
14316;SDS011;7242;50.858;6.586;2022-09-09T11:06:48;3.50;;;0.80;;
14316;SDS011;7242;50.858;6.586;2022-09-09T11:09:54;3.03;;;0.70;;
14316;SDS011;7242;50.858;6.586;2022-09-09T11:13:02;3.43;;;0.80;;
14316;SDS011;7242;50.858;6.586;2022-09-09T11:16:26;1.80;;;0.90;;
14316;SDS011;7242;50.858;6.586;2022-09-09T11:19:45;2.33;;;0.90;;
14316;SDS011;7242;50.858;6.586;2022-09-09T11:22:48;4.67;;;1.20;;
14316;SDS011;7242;50.858;6.586;2022-09-09T11:25:55;2.17;;;0.80;;
14316;SDS011;7242;50.858;6.586;2022-09-09T11:42:31;4.83;;;1.07;;
14316;SDS011;7242;50.858;6.586;2022-09-09T11:45:33;1.57;;;0.70;;
14316;SDS011;7242;50.858;6.586;2022-09-09T11:48:36;2.60;;;0.80;;
14316;SDS011;7242;50.858;6.586;2022-09-09T11:51:45;3.00;;;0.60;;
14316;SDS011;7242;50.858;6.586;2022-09-09T11:54:47;2.03;;;0.63;;
14316;SDS011;7242;50.858;6.586;2022-09-09T11:57:49;3.83;;;1.00;;
14316;SDS011;7242;50.858;6.586;2022-09-09T12:01:01;2.83;;;0.70;;
14316;SDS011;7242;50.858;6.586;2022-09-09T12:04:27;2.00;;;0.53;;
14316;SDS011;7242;50.858;6.586;2022-09-09T12:07:30;2.37;;;0.70;;
14316;SDS011;7242;50.858;6.586;2022-09-09T12:10:39;3.97;;;0.97;;
14316;SDS011;7242;50.858;6.586;2022-09-09T12:13:40;2.37;;;0.50;;
14316;SDS011;7242;50.858;6.586;2022-09-09T12:16:53;3.30;;;0.70;;
14316;SDS011;7242;50.858;6.586;2022-09-09T12:26:38;2.23;;;0.80;;
14316;SDS011;7242;50.858;6.586;2022-09-09T12:29:47;2.13;;;0.90;;
14316;SDS011;7242;50.858;6.586;2022-09-09T12:33:08;2.77;;;0.70;;
14316;SDS011;7242;50.858;6.586;2022-09-09T12:36:24;3.43;;;0.90;;
14316;SDS011;7242;50.858;6.586;2022-09-09T12:39:29;2.03;;;0.70;;
14316;SDS011;7242;50.858;6.586;2022-09-09T12:42:42;2.60;;;1.00;;
14316;SDS011;7242;50.858;6.586;2022-09-09T12:45:43;2.60;;;0.90;;
14316;SDS011;7242;50.858;6.586;2022-09-09T12:48:45;2.23;;;0.80;;
14316;SDS011;7242;50.858;6.586;2022-09-09T12:51:45;2.63;;;0.90;;
14316;SDS011;7242;50.858;6.586;2022-09-09T12:54:47;2.23;;;0.73;;
14316;SDS011;7242;50.858;6.586;2022-09-09T12:57:48;1.90;;;0.73;;
14316;SDS011;7242;50.858;6.586;2022-09-09T13:00:51;1.67;;;0.57;;
14316;SDS011;7242;50.858;6.586;2022-09-09T13:03:53;3.27;;;0.90;;
14316;SDS011;7242;50.858;6.586;2022-09-09T13:07:05;2.47;;;0.77;;
14316;SDS011;7242;50.858;6.586;2022-09-09T13:10:12;2.10;;;0.80;;
14316;SDS011;7242;50.858;6.586;2022-09-09T13:13:19;4.43;;;0.87;;
14316;SDS011;7242;50.858;6.586;2022-09-09T13:16:32;1.23;;;0.60;;
14316;SDS011;7242;50.858;6.586;2022-09-09T13:19:37;2.30;;;0.90;;
14316;SDS011;7242;50.858;6.586;2022-09-09T13:22:46;3.13;;;0.87;;
14316;SDS011;7242;50.858;6.586;2022-09-09T13:25:56;1.30;;;0.60;;
14316;SDS011;7242;50.858;6.586;2022-09-09T13:29:14;1.73;;;0.70;;
14316;SDS011;7242;50.858;6.586;2022-09-09T13:33:20;2.00;;;0.70;;
14316;SDS011;7242;50.858;6.586;2022-09-09T13:36:29;2.23;;;0.60;;
14316;SDS011;7242;50.858;6.586;2022-09-09T13:39:32;1.83;;;0.70;;
14316;SDS011;7242;50.858;6.586;2022-09-09T13:42:37;0.83;;;0.60;;
14316;SDS011;7242;50.858;6.586;2022-09-09T13:45:40;2.70;;;0.70;;
14316;SDS011;7242;50.858;6.586;2022-09-09T13:48:40;2.10;;;0.70;;
14316;SDS011;7242;50.858;6.586;2022-09-09T13:51:45;1.40;;;0.50;;
14316;SDS011;7242;50.858;6.586;2022-09-09T13:54:51;4.57;;;0.87;;
14316;SDS011;7242;50.858;6.586;2022-09-09T13:57:59;2.27;;;0.90;;
14316;SDS011;7242;50.858;6.586;2022-09-09T14:01:01;1.53;;;0.73;;
14316;SDS011;7242;50.858;6.586;2022-09-09T14:04:02;2.77;;;1.07;;
14316;SDS011;7242;50.858;6.586;2022-09-09T14:07:03;3.60;;;0.90;;
14316;SDS011;7242;50.858;6.586;2022-09-09T14:10:04;2.57;;;0.93;;
14316;SDS011;7242;50.858;6.586;2022-09-09T14:13:06;1.50;;;0.70;;
14316;SDS011;7242;50.858;6.586;2022-09-09T14:16:08;1.73;;;1.00;;
14316;SDS011;7242;50.858;6.586;2022-09-09T14:19:09;2.20;;;1.07;;
14316;SDS011;7242;50.858;6.586;2022-09-09T14:22:10;1.50;;;0.80;;
14316;SDS011;7242;50.858;6.586;2022-09-09T14:25:12;3.20;;;0.90;;
14316;SDS011;7242;50.858;6.586;2022-09-09T14:28:14;2.30;;;0.80;;
14316;SDS011;7242;50.858;6.586;2022-09-09T14:31:15;1.67;;;0.70;;
14316;SDS011;7242;50.858;6.586;2022-09-09T14:34:17;1.73;;;0.80;;
14316;SDS011;7242;50.858;6.586;2022-09-09T14:37:18;1.37;;;0.60;;
14316;SDS011;7242;50.858;6.586;2022-09-09T14:40:20;1.03;;;0.40;;
14316;SDS011;7242;50.858;6.586;2022-09-09T14:43:21;2.80;;;0.70;;
14316;SDS011;7242;50.858;6.586;2022-09-09T14:46:22;1.10;;;0.53;;
14316;SDS011;7242;50.858;6.586;2022-09-09T14:49:24;2.00;;;0.87;;
14316;SDS011;7242;50.858;6.586;2022-09-09T14:52:24;1.60;;;0.60;;
14316;SDS011;7242;50.858;6.586;2022-09-09T14:55:26;2.10;;;0.80;;
14316;SDS011;7242;50.858;6.586;2022-09-09T14:58:30;2.50;;;0.80;;
14316;SDS011;7242;50.858;6.586;2022-09-09T15:01:31;2.97;;;0.70;;
14316;SDS011;7242;50.858;6.586;2022-09-09T15:04:32;2.37;;;0.70;;
14316;SDS011;7242;50.858;6.586;2022-09-09T15:07:33;1.30;;;0.77;;
14316;SDS011;7242;50.858;6.586;2022-09-09T15:10:34;1.80;;;0.73;;
14316;SDS011;7242;50.858;6.586;2022-09-09T15:13:35;2.23;;;0.70;;
14316;SDS011;7242;50.858;6.586;2022-09-09T15:16:40;1.70;;;0.90;;
14316;SDS011;7242;50.858;6.586;2022-09-09T15:19:41;1.67;;;0.70;;
14316;SDS011;7242;50.858;6.586;2022-09-09T15:22:42;1.23;;;0.70;;
14316;SDS011;7242;50.858;6.586;2022-09-09T15:25:50;3.70;;;0.90;;
14316;SDS011;7242;50.858;6.586;2022-09-09T15:28:55;2.13;;;0.90;;
14316;SDS011;7242;50.858;6.586;2022-09-09T15:31:59;1.87;;;0.80;;
14316;SDS011;7242;50.858;6.586;2022-09-09T15:35:00;2.47;;;0.80;;
14316;SDS011;7242;50.858;6.586;2022-09-09T15:38:02;2.97;;;0.80;;
14316;SDS011;7242;50.858;6.586;2022-09-09T15:41:04;3.60;;;0.90;;
14316;SDS011;7242;50.858;6.586;2022-09-09T15:44:06;2.03;;;0.67;;
14316;SDS011;7242;50.858;6.586;2022-09-09T15:47:07;1.27;;;0.70;;
14316;SDS011;7242;50.858;6.586;2022-09-09T15:50:08;1.57;;;0.80;;
14316;SDS011;7242;50.858;6.586;2022-09-09T15:53:09;1.20;;;0.70;;
14316;SDS011;7242;50.858;6.586;2022-09-09T15:56:11;3.40;;;0.80;;
14316;SDS011;7242;50.858;6.586;2022-09-09T15:59:12;2.80;;;0.90;;
14316;SDS011;7242;50.858;6.586;2022-09-09T16:02:14;2.13;;;0.80;;
14316;SDS011;7242;50.858;6.586;2022-09-09T16:05:16;1.27;;;0.73;;
14316;SDS011;7242;50.858;6.586;2022-09-09T16:08:17;2.00;;;0.93;;
14316;SDS011;7242;50.858;6.586;2022-09-09T16:14:23;3.13;;;0.90;;
14316;SDS011;7242;50.858;6.586;2022-09-09T16:17:25;2.87;;;1.03;;
14316;SDS011;7242;50.858;6.586;2022-09-09T16:20:27;3.53;;;1.20;;
14316;SDS011;7242;50.858;6.586;2022-09-09T16:23:28;3.10;;;0.83;;
14316;SDS011;7242;50.858;6.586;2022-09-09T16:26:30;4.33;;;1.10;;
14316;SDS011;7242;50.858;6.586;2022-09-09T16:29:32;1.67;;;0.90;;
14316;SDS011;7242;50.858;6.586;2022-09-09T16:32:33;2.30;;;0.80;;
14316;SDS011;7242;50.858;6.586;2022-09-09T16:35:36;1.47;;;0.60;;
14316;SDS011;7242;50.858;6.586;2022-09-09T16:38:38;1.87;;;0.83;;
14316;SDS011;7242;50.858;6.586;2022-09-09T16:41:40;1.40;;;0.60;;
14316;SDS011;7242;50.858;6.586;2022-09-09T16:44:43;2.47;;;0.70;;
14316;SDS011;7242;50.858;6.586;2022-09-09T16:47:43;0.97;;;0.80;;
14316;SDS011;7242;50.858;6.586;2022-09-09T16:50:44;2.57;;;0.83;;
14316;SDS011;7242;50.858;6.586;2022-09-09T16:53:46;0.90;;;0.60;;
14316;SDS011;7242;50.858;6.586;2022-09-09T16:56:47;1.47;;;0.60;;
14316;SDS011;7242;50.858;6.586;2022-09-09T16:59:48;2.13;;;0.70;;
14316;SDS011;7242;50.858;6.586;2022-09-09T17:02:50;3.57;;;0.90;;
14316;SDS011;7242;50.858;6.586;2022-09-09T17:05:50;1.83;;;0.50;;
14316;SDS011;7242;50.858;6.586;2022-09-09T17:08:56;2.43;;;0.70;;
14316;SDS011;7242;50.858;6.586;2022-09-09T17:11:58;2.23;;;0.80;;
14316;SDS011;7242;50.858;6.586;2022-09-09T17:14:59;1.63;;;0.53;;
14316;SDS011;7242;50.858;6.586;2022-09-09T17:18:03;0.97;;;0.50;;
14316;SDS011;7242;50.858;6.586;2022-09-09T17:21:04;1.70;;;0.70;;
14316;SDS011;7242;50.858;6.586;2022-09-09T17:24:14;1.50;;;0.70;;
14316;SDS011;7242;50.858;6.586;2022-09-09T17:27:15;1.27;;;0.80;;
14316;SDS011;7242;50.858;6.586;2022-09-09T17:30:16;2.40;;;0.93;;
14316;SDS011;7242;50.858;6.586;2022-09-09T17:33:17;1.73;;;0.77;;
14316;SDS011;7242;50.858;6.586;2022-09-09T17:36:27;1.90;;;0.70;;
14316;SDS011;7242;50.858;6.586;2022-09-09T17:39:30;1.83;;;0.93;;
14316;SDS011;7242;50.858;6.586;2022-09-09T17:42:31;1.03;;;0.73;;
14316;SDS011;7242;50.858;6.586;2022-09-09T17:45:32;1.03;;;0.87;;
14316;SDS011;7242;50.858;6.586;2022-09-09T17:48:33;4.30;;;0.80;;
14316;SDS011;7242;50.858;6.586;2022-09-09T17:51:36;3.43;;;1.30;;
14316;SDS011;7242;50.858;6.586;2022-09-09T17:54:37;2.47;;;1.20;;
14316;SDS011;7242;50.858;6.586;2022-09-09T17:57:41;2.47;;;1.00;;
14316;SDS011;7242;50.858;6.586;2022-09-09T18:00:42;3.00;;;1.30;;
14316;SDS011;7242;50.858;6.586;2022-09-09T18:03:43;2.70;;;1.03;;
14316;SDS011;7242;50.858;6.586;2022-09-09T18:06:45;3.30;;;1.50;;
14316;SDS011;7242;50.858;6.586;2022-09-09T18:09:51;2.10;;;1.00;;
14316;SDS011;7242;50.858;6.586;2022-09-09T18:12:52;2.67;;;1.30;;
14316;SDS011;7242;50.858;6.586;2022-09-09T18:15:53;3.43;;;1.30;;
14316;SDS011;7242;50.858;6.586;2022-09-09T18:18:55;2.17;;;1.10;;
14316;SDS011;7242;50.858;6.586;2022-09-09T18:22:03;2.30;;;1.03;;
14316;SDS011;7242;50.858;6.586;2022-09-09T18:25:04;3.27;;;1.00;;
14316;SDS011;7242;50.858;6.586;2022-09-09T18:28:05;3.50;;;0.80;;
14316;SDS011;7242;50.858;6.586;2022-09-09T18:31:11;1.77;;;0.80;;
14316;SDS011;7242;50.858;6.586;2022-09-09T18:34:15;1.70;;;0.63;;
14316;SDS011;7242;50.858;6.586;2022-09-09T18:37:16;1.40;;;0.77;;
14316;SDS011;7242;50.858;6.586;2022-09-09T18:40:18;1.43;;;0.70;;
14316;SDS011;7242;50.858;6.586;2022-09-09T18:43:18;1.80;;;0.73;;
14316;SDS011;7242;50.858;6.586;2022-09-09T18:46:20;2.63;;;0.90;;
14316;SDS011;7242;50.858;6.586;2022-09-09T18:49:22;2.33;;;0.90;;
14316;SDS011;7242;50.858;6.586;2022-09-09T18:52:23;1.87;;;1.00;;
14316;SDS011;7242;50.858;6.586;2022-09-09T18:55:24;3.13;;;0.90;;
14316;SDS011;7242;50.858;6.586;2022-09-09T18:58:28;1.97;;;0.70;;
14316;SDS011;7242;50.858;6.586;2022-09-09T19:01:29;2.33;;;0.90;;
14316;SDS011;7242;50.858;6.586;2022-09-09T19:04:30;5.33;;;1.10;;
14316;SDS011;7242;50.858;6.586;2022-09-09T19:07:32;2.90;;;0.93;;
14316;SDS011;7242;50.858;6.586;2022-09-09T19:10:36;2.30;;;0.90;;
14316;SDS011;7242;50.858;6.586;2022-09-09T19:13:37;2.90;;;1.00;;
14316;SDS011;7242;50.858;6.586;2022-09-09T19:16:38;3.03;;;1.10;;
14316;SDS011;7242;50.858;6.586;2022-09-09T19:19:39;3.00;;;0.80;;
14316;SDS011;7242;50.858;6.586;2022-09-09T19:22:41;2.80;;;0.93;;
14316;SDS011;7242;50.858;6.586;2022-09-09T19:25:42;1.63;;;0.80;;
14316;SDS011;7242;50.858;6.586;2022-09-09T19:28:44;2.30;;;0.80;;
14316;SDS011;7242;50.858;6.586;2022-09-09T19:31:46;2.80;;;0.97;;
14316;SDS011;7242;50.858;6.586;2022-09-09T19:34:47;3.07;;;0.90;;
14316;SDS011;7242;50.858;6.586;2022-09-09T19:37:49;1.83;;;0.73;;
14316;SDS011;7242;50.858;6.586;2022-09-09T19:40:50;2.47;;;0.90;;
14316;SDS011;7242;50.858;6.586;2022-09-09T19:43:54;1.80;;;0.80;;
14316;SDS011;7242;50.858;6.586;2022-09-09T19:46:58;2.03;;;0.97;;
14316;SDS011;7242;50.858;6.586;2022-09-09T19:49:59;2.40;;;1.00;;
14316;SDS011;7242;50.858;6.586;2022-09-09T19:53:01;4.27;;;1.20;;
14316;SDS011;7242;50.858;6.586;2022-09-09T19:56:03;2.80;;;1.60;;
14316;SDS011;7242;50.858;6.586;2022-09-09T19:59:04;3.17;;;1.37;;
14316;SDS011;7242;50.858;6.586;2022-09-09T20:02:06;3.17;;;1.20;;
14316;SDS011;7242;50.858;6.586;2022-09-09T20:05:08;2.67;;;1.03;;
14316;SDS011;7242;50.858;6.586;2022-09-09T20:08:09;2.90;;;1.00;;
14316;SDS011;7242;50.858;6.586;2022-09-09T20:11:10;1.90;;;0.87;;
14316;SDS011;7242;50.858;6.586;2022-09-09T20:14:12;4.43;;;1.10;;
14316;SDS011;7242;50.858;6.586;2022-09-09T20:17:13;3.20;;;1.07;;
14316;SDS011;7242;50.858;6.586;2022-09-09T20:20:14;3.43;;;0.90;;
14316;SDS011;7242;50.858;6.586;2022-09-09T20:23:15;2.67;;;0.90;;
14316;SDS011;7242;50.858;6.586;2022-09-09T20:26:18;2.33;;;0.97;;
14316;SDS011;7242;50.858;6.586;2022-09-09T20:29:20;1.80;;;0.97;;
14316;SDS011;7242;50.858;6.586;2022-09-09T20:32:21;2.53;;;1.10;;
14316;SDS011;7242;50.858;6.586;2022-09-09T20:35:22;2.57;;;1.00;;